sensor_id;sensor_type;location;lat;lon;timestamp;noise_LAeq;noise_LA_min;noise_LA_max;noise_LA01;noise_LA95
71020;Laerm;58902;51.436;5.980;2023-04-24T00:00:05;37.85;30.41;51.54;;
71020;Laerm;58902;51.436;5.980;2023-04-24T00:00:16;39.40;31.05;54.55;;
71020;Laerm;58902;51.436;5.980;2023-04-24T00:00:27;32.43;30.32;35.62;;
71020;Laerm;58902;51.436;5.980;2023-04-24T00:00:38;32.49;30.75;36.37;;
71020;Laerm;58902;51.436;5.980;2023-04-24T00:00:50;33.05;31.42;35.30;;
71020;Laerm;58902;51.436;5.980;2023-04-24T00:01:02;33.78;30.97;44.90;;
71020;Laerm;58902;51.436;5.980;2023-04-24T00:01:12;42.75;38.26;48.62;;
71020;Laerm;58902;51.436;5.980;2023-04-24T00:01:23;39.03;33.38;47.73;;
71020;Laerm;58902;51.436;5.980;2023-04-24T00:01:33;36.94;34.36;47.55;;
71020;Laerm;58902;51.436;5.980;2023-04-24T00:01:44;37.32;34.94;40.06;;
71020;Laerm;58902;51.436;5.980;2023-04-24T00:01:54;44.46;36.12;55.78;;
71020;Laerm;58902;51.436;5.980;2023-04-24T00:02:05;71.63;54.38;77.81;;
71020;Laerm;58902;51.436;5.980;2023-04-24T00:02:16;65.62;41.19;73.92;;
71020;Laerm;58902;51.436;5.980;2023-04-24T00:02:27;40.71;35.26;46.40;;
71020;Laerm;58902;51.436;5.980;2023-04-24T00:02:37;34.96;32.97;37.80;;
71020;Laerm;58902;51.436;5.980;2023-04-24T00:02:48;34.36;32.79;37.38;;
71020;Laerm;58902;51.436;5.980;2023-04-24T00:02:58;36.11;33.58;46.96;;
71020;Laerm;58902;51.436;5.980;2023-04-24T00:03:09;34.48;32.62;37.06;;
71020;Laerm;58902;51.436;5.980;2023-04-24T00:03:19;34.95;33.22;40.12;;
71020;Laerm;58902;51.436;5.980;2023-04-24T00:03:31;34.65;33.09;36.98;;
71020;Laerm;58902;51.436;5.980;2023-04-24T00:03:42;34.96;32.75;39.20;;
71020;Laerm;58902;51.436;5.980;2023-04-24T00:03:53;35.94;33.29;40.16;;
71020;Laerm;58902;51.436;5.980;2023-04-24T00:04:03;34.52;32.95;37.01;;
71020;Laerm;58902;51.436;5.980;2023-04-24T00:04:14;33.93;32.10;37.66;;
71020;Laerm;58902;51.436;5.980;2023-04-24T00:04:29;34.28;32.30;37.93;;
71020;Laerm;58902;51.436;5.980;2023-04-24T00:04:40;36.12;34.20;38.61;;
71020;Laerm;58902;51.436;5.980;2023-04-24T00:04:51;35.30;33.48;37.77;;
71020;Laerm;58902;51.436;5.980;2023-04-24T00:05:01;35.58;33.73;37.34;;
71020;Laerm;58902;51.436;5.980;2023-04-24T00:05:13;36.25;34.01;39.42;;
71020;Laerm;58902;51.436;5.980;2023-04-24T00:05:27;37.35;35.42;39.25;;
71020;Laerm;58902;51.436;5.980;2023-04-24T00:05:37;36.65;34.48;40.65;;
71020;Laerm;58902;51.436;5.980;2023-04-24T00:05:50;36.51;33.84;48.24;;
71020;Laerm;58902;51.436;5.980;2023-04-24T00:06:01;34.72;33.00;43.23;;
71020;Laerm;58902;51.436;5.980;2023-04-24T00:06:12;34.42;32.38;40.43;;
71020;Laerm;58902;51.436;5.980;2023-04-24T00:06:22;34.51;32.26;37.93;;
71020;Laerm;58902;51.436;5.980;2023-04-24T00:06:33;34.52;32.75;37.90;;
71020;Laerm;58902;51.436;5.980;2023-04-24T00:06:44;34.47;32.78;38.99;;
71020;Laerm;58902;51.436;5.980;2023-04-24T00:06:54;34.95;33.32;37.40;;
71020;Laerm;58902;51.436;5.980;2023-04-24T00:07:07;34.89;33.11;37.05;;
71020;Laerm;58902;51.436;5.980;2023-04-24T00:07:17;35.24;33.73;37.77;;
71020;Laerm;58902;51.436;5.980;2023-04-24T00:07:27;34.60;32.74;41.24;;
71020;Laerm;58902;51.436;5.980;2023-04-24T00:07:38;34.64;33.05;37.36;;
71020;Laerm;58902;51.436;5.980;2023-04-24T00:07:48;34.98;33.05;37.82;;
71020;Laerm;58902;51.436;5.980;2023-04-24T00:07:58;34.88;33.36;36.71;;
71020;Laerm;58902;51.436;5.980;2023-04-24T00:08:09;34.84;33.19;37.30;;
71020;Laerm;58902;51.436;5.980;2023-04-24T00:08:19;35.35;33.64;37.24;;
71020;Laerm;58902;51.436;5.980;2023-04-24T00:08:29;35.60;33.77;38.43;;
71020;Laerm;58902;51.436;5.980;2023-04-24T00:08:40;36.29;34.36;46.33;;
71020;Laerm;58902;51.436;5.980;2023-04-24T00:08:51;42.28;35.41;56.71;;
71020;Laerm;58902;51.436;5.980;2023-04-24T00:09:02;44.84;34.19;58.93;;
71020;Laerm;58902;51.436;5.980;2023-04-24T00:09:12;37.60;35.90;40.78;;
71020;Laerm;58902;51.436;5.980;2023-04-24T00:09:23;37.48;35.95;39.25;;
71020;Laerm;58902;51.436;5.980;2023-04-24T00:09:33;36.87;34.94;39.57;;
71020;Laerm;58902;51.436;5.980;2023-04-24T00:09:43;37.08;34.19;48.70;;
71020;Laerm;58902;51.436;5.980;2023-04-24T00:09:54;35.97;32.77;45.24;;
71020;Laerm;58902;51.436;5.980;2023-04-24T00:10:04;36.22;33.53;46.77;;
71020;Laerm;58902;51.436;5.980;2023-04-24T00:10:15;34.78;32.14;41.18;;
71020;Laerm;58902;51.436;5.980;2023-04-24T00:10:25;33.78;32.37;39.08;;
71020;Laerm;58902;51.436;5.980;2023-04-24T00:10:36;34.20;31.96;36.58;;
71020;Laerm;58902;51.436;5.980;2023-04-24T00:10:46;33.91;32.62;37.08;;
71020;Laerm;58902;51.436;5.980;2023-04-24T00:10:56;33.74;31.96;36.39;;
71020;Laerm;58902;51.436;5.980;2023-04-24T00:11:07;34.29;31.77;44.80;;
71020;Laerm;58902;51.436;5.980;2023-04-24T00:11:19;33.65;32.20;37.26;;
71020;Laerm;58902;51.436;5.980;2023-04-24T00:11:30;33.19;31.74;37.70;;
71020;Laerm;58902;51.436;5.980;2023-04-24T00:11:40;33.53;31.82;35.71;;
71020;Laerm;58902;51.436;5.980;2023-04-24T00:11:51;33.15;31.35;36.59;;
71020;Laerm;58902;51.436;5.980;2023-04-24T00:12:02;32.89;31.29;37.21;;
71020;Laerm;58902;51.436;5.980;2023-04-24T00:12:14;33.06;31.01;37.15;;
71020;Laerm;58902;51.436;5.980;2023-04-24T00:12:25;33.38;31.14;37.10;;
71020;Laerm;58902;51.436;5.980;2023-04-24T00:12:35;34.40;32.62;37.70;;
71020;Laerm;58902;51.436;5.980;2023-04-24T00:12:46;34.80;32.56;36.47;;
71020;Laerm;58902;51.436;5.980;2023-04-24T00:12:56;33.86;32.31;35.91;;
71020;Laerm;58902;51.436;5.980;2023-04-24T00:13:07;34.21;31.85;37.79;;
71020;Laerm;58902;51.436;5.980;2023-04-24T00:13:17;34.24;32.20;36.59;;
71020;Laerm;58902;51.436;5.980;2023-04-24T00:13:27;36.48;32.72;40.41;;
71020;Laerm;58902;51.436;5.980;2023-04-24T00:13:41;35.79;32.97;41.11;;
71020;Laerm;58902;51.436;5.980;2023-04-24T00:13:51;38.16;34.68;45.07;;
71020;Laerm;58902;51.436;5.980;2023-04-24T00:14:02;40.38;35.48;45.60;;
71020;Laerm;58902;51.436;5.980;2023-04-24T00:14:12;35.43;31.99;39.59;;
71020;Laerm;58902;51.436;5.980;2023-04-24T00:14:22;34.07;32.07;36.89;;
71020;Laerm;58902;51.436;5.980;2023-04-24T00:14:33;34.68;32.97;38.29;;
71020;Laerm;58902;51.436;5.980;2023-04-24T00:14:44;34.58;32.36;37.10;;
71020;Laerm;58902;51.436;5.980;2023-04-24T00:14:55;33.91;32.44;35.69;;
71020;Laerm;58902;51.436;5.980;2023-04-24T00:15:05;36.35;33.01;46.87;;
71020;Laerm;58902;51.436;5.980;2023-04-24T00:15:16;36.30;33.99;39.73;;
71020;Laerm;58902;51.436;5.980;2023-04-24T00:15:26;35.55;33.62;40.79;;
71020;Laerm;58902;51.436;5.980;2023-04-24T00:15:36;34.85;33.25;37.89;;
71020;Laerm;58902;51.436;5.980;2023-04-24T00:15:47;34.91;33.29;38.35;;
71020;Laerm;58902;51.436;5.980;2023-04-24T00:15:57;34.84;33.25;36.63;;
71020;Laerm;58902;51.436;5.980;2023-04-24T00:16:07;34.76;32.98;37.24;;
71020;Laerm;58902;51.436;5.980;2023-04-24T00:16:18;35.28;33.86;37.52;;
71020;Laerm;58902;51.436;5.980;2023-04-24T00:16:28;35.79;33.90;38.06;;
71020;Laerm;58902;51.436;5.980;2023-04-24T00:16:38;34.83;32.76;37.75;;
71020;Laerm;58902;51.436;5.980;2023-04-24T00:16:49;34.74;32.95;38.60;;
71020;Laerm;58902;51.436;5.980;2023-04-24T00:16:59;34.63;32.88;39.18;;
71020;Laerm;58902;51.436;5.980;2023-04-24T00:17:10;34.78;32.72;36.74;;
71020;Laerm;58902;51.436;5.980;2023-04-24T00:17:20;35.97;34.24;37.78;;
71020;Laerm;58902;51.436;5.980;2023-04-24T00:17:31;35.32;33.10;38.75;;
71020;Laerm;58902;51.436;5.980;2023-04-24T00:17:41;34.71;33.09;36.67;;
71020;Laerm;58902;51.436;5.980;2023-04-24T00:17:51;34.15;32.30;42.79;;
71020;Laerm;58902;51.436;5.980;2023-04-24T00:18:03;35.25;32.11;48.46;;
71020;Laerm;58902;51.436;5.980;2023-04-24T00:18:16;35.47;32.59;37.87;;
71020;Laerm;58902;51.436;5.980;2023-04-24T00:18:27;34.52;32.93;36.90;;
71020;Laerm;58902;51.436;5.980;2023-04-24T00:18:37;34.70;32.52;36.95;;
71020;Laerm;58902;51.436;5.980;2023-04-24T00:18:47;33.52;31.61;36.54;;
71020;Laerm;58902;51.436;5.980;2023-04-24T00:18:57;34.13;32.46;37.54;;
71020;Laerm;58902;51.436;5.980;2023-04-24T00:19:08;34.42;32.65;38.36;;
71020;Laerm;58902;51.436;5.980;2023-04-24T00:19:21;34.63;32.79;39.40;;
71020;Laerm;58902;51.436;5.980;2023-04-24T00:19:32;34.36;32.73;38.80;;
71020;Laerm;58902;51.436;5.980;2023-04-24T00:19:42;34.02;32.71;37.37;;
71020;Laerm;58902;51.436;5.980;2023-04-24T00:19:52;36.72;34.09;41.33;;
71020;Laerm;58902;51.436;5.980;2023-04-24T00:20:08;35.95;34.31;37.83;;
71020;Laerm;58902;51.436;5.980;2023-04-24T00:20:20;35.22;32.79;37.92;;
71020;Laerm;58902;51.436;5.980;2023-04-24T00:20:31;35.38;33.81;41.96;;
71020;Laerm;58902;51.436;5.980;2023-04-24T00:20:45;36.24;34.46;39.18;;
71020;Laerm;58902;51.436;5.980;2023-04-24T00:20:56;34.95;33.40;37.32;;
71020;Laerm;58902;51.436;5.980;2023-04-24T00:21:07;34.49;32.66;38.00;;
71020;Laerm;58902;51.436;5.980;2023-04-24T00:21:17;34.47;32.90;37.82;;
71020;Laerm;58902;51.436;5.980;2023-04-24T00:21:27;34.39;32.93;37.15;;
71020;Laerm;58902;51.436;5.980;2023-04-24T00:21:38;34.65;33.28;36.81;;
71020;Laerm;58902;51.436;5.980;2023-04-24T00:21:48;34.97;32.74;39.73;;
71020;Laerm;58902;51.436;5.980;2023-04-24T00:22:01;34.16;31.57;38.03;;
71020;Laerm;58902;51.436;5.980;2023-04-24T00:22:12;34.08;31.84;39.94;;
71020;Laerm;58902;51.436;5.980;2023-04-24T00:22:25;34.24;31.96;45.27;;
71020;Laerm;58902;51.436;5.980;2023-04-24T00:22:36;33.82;31.37;37.55;;
71020;Laerm;58902;51.436;5.980;2023-04-24T00:22:46;34.16;32.37;39.12;;
71020;Laerm;58902;51.436;5.980;2023-04-24T00:22:59;33.70;31.59;36.03;;
71020;Laerm;58902;51.436;5.980;2023-04-24T00:23:10;33.48;31.71;36.26;;
71020;Laerm;58902;51.436;5.980;2023-04-24T00:23:20;33.52;31.69;36.71;;
71020;Laerm;58902;51.436;5.980;2023-04-24T00:23:31;33.60;31.95;36.34;;
71020;Laerm;58902;51.436;5.980;2023-04-24T00:23:41;33.68;32.22;36.78;;
71020;Laerm;58902;51.436;5.980;2023-04-24T00:23:51;34.79;32.96;38.34;;
71020;Laerm;58902;51.436;5.980;2023-04-24T00:24:02;33.48;31.39;36.54;;
71020;Laerm;58902;51.436;5.980;2023-04-24T00:24:13;33.37;31.38;38.12;;
71020;Laerm;58902;51.436;5.980;2023-04-24T00:24:23;33.37;31.50;36.63;;
71020;Laerm;58902;51.436;5.980;2023-04-24T00:24:33;32.68;31.24;37.36;;
71020;Laerm;58902;51.436;5.980;2023-04-24T00:24:44;33.18;31.35;35.74;;
71020;Laerm;58902;51.436;5.980;2023-04-24T00:24:54;32.64;30.88;35.34;;
71020;Laerm;58902;51.436;5.980;2023-04-24T00:25:05;32.11;30.38;35.13;;
71020;Laerm;58902;51.436;5.980;2023-04-24T00:25:16;32.16;30.68;35.32;;
71020;Laerm;58902;51.436;5.980;2023-04-24T00:25:26;34.04;30.91;47.09;;
71020;Laerm;58902;51.436;5.980;2023-04-24T00:25:39;36.77;31.05;52.70;;
71020;Laerm;58902;51.436;5.980;2023-04-24T00:25:50;32.66;30.90;44.11;;
71020;Laerm;58902;51.436;5.980;2023-04-24T00:26:01;33.19;31.77;37.89;;
71020;Laerm;58902;51.436;5.980;2023-04-24T00:26:12;33.06;31.72;35.92;;
71020;Laerm;58902;51.436;5.980;2023-04-24T00:26:25;32.35;30.64;35.82;;
71020;Laerm;58902;51.436;5.980;2023-04-24T00:26:38;32.23;30.79;36.44;;
71020;Laerm;58902;51.436;5.980;2023-04-24T00:26:48;32.46;30.80;39.70;;
71020;Laerm;58902;51.436;5.980;2023-04-24T00:26:59;32.41;30.63;34.56;;
71020;Laerm;58902;51.436;5.980;2023-04-24T00:27:11;32.16;30.52;34.46;;
71020;Laerm;58902;51.436;5.980;2023-04-24T00:27:24;32.90;30.88;38.35;;
71020;Laerm;58902;51.436;5.980;2023-04-24T00:27:42;33.47;31.26;38.12;;
71020;Laerm;58902;51.436;5.980;2023-04-24T00:27:52;35.43;31.76;40.94;;
71020;Laerm;58902;51.436;5.980;2023-04-24T00:28:02;32.34;30.90;35.13;;
71020;Laerm;58902;51.436;5.980;2023-04-24T00:28:13;33.04;31.31;37.23;;
71020;Laerm;58902;51.436;5.980;2023-04-24T00:28:23;33.81;31.93;36.61;;
71020;Laerm;58902;51.436;5.980;2023-04-24T00:28:33;33.86;32.37;36.39;;
71020;Laerm;58902;51.436;5.980;2023-04-24T00:28:44;34.09;32.64;36.47;;
71020;Laerm;58902;51.436;5.980;2023-04-24T00:28:54;35.26;32.35;37.31;;
71020;Laerm;58902;51.436;5.980;2023-04-24T00:29:05;35.70;34.28;38.57;;
71020;Laerm;58902;51.436;5.980;2023-04-24T00:29:15;34.74;33.24;36.57;;
71020;Laerm;58902;51.436;5.980;2023-04-24T00:29:25;35.40;33.51;38.82;;
71020;Laerm;58902;51.436;5.980;2023-04-24T00:29:36;34.78;33.12;37.82;;
71020;Laerm;58902;51.436;5.980;2023-04-24T00:29:46;34.46;33.18;36.64;;
71020;Laerm;58902;51.436;5.980;2023-04-24T00:29:57;34.18;32.08;37.96;;
71020;Laerm;58902;51.436;5.980;2023-04-24T00:30:07;33.88;32.56;36.21;;
71020;Laerm;58902;51.436;5.980;2023-04-24T00:30:18;34.02;32.10;36.50;;
71020;Laerm;58902;51.436;5.980;2023-04-24T00:30:28;34.03;32.53;36.12;;
71020;Laerm;58902;51.436;5.980;2023-04-24T00:30:38;34.58;32.60;41.04;;
71020;Laerm;58902;51.436;5.980;2023-04-24T00:30:49;34.03;32.21;36.21;;
71020;Laerm;58902;51.436;5.980;2023-04-24T00:31:00;34.83;33.24;37.18;;
71020;Laerm;58902;51.436;5.980;2023-04-24T00:31:11;42.13;33.49;54.73;;
71020;Laerm;58902;51.436;5.980;2023-04-24T00:31:21;35.28;33.70;37.53;;
71020;Laerm;58902;51.436;5.980;2023-04-24T00:31:31;35.23;33.46;36.83;;
71020;Laerm;58902;51.436;5.980;2023-04-24T00:31:44;36.20;34.01;37.77;;
71020;Laerm;58902;51.436;5.980;2023-04-24T00:31:55;37.33;35.43;39.73;;
71020;Laerm;58902;51.436;5.980;2023-04-24T00:32:05;37.03;35.45;40.02;;
71020;Laerm;58902;51.436;5.980;2023-04-24T00:32:16;36.97;35.05;39.14;;
71020;Laerm;58902;51.436;5.980;2023-04-24T00:32:27;35.69;34.10;37.29;;
71020;Laerm;58902;51.436;5.980;2023-04-24T00:32:37;34.74;33.18;36.96;;
71020;Laerm;58902;51.436;5.980;2023-04-24T00:32:48;34.12;32.15;38.22;;
71020;Laerm;58902;51.436;5.980;2023-04-24T00:32:58;33.88;31.96;38.82;;
71020;Laerm;58902;51.436;5.980;2023-04-24T00:33:08;33.51;31.94;35.51;;
71020;Laerm;58902;51.436;5.980;2023-04-24T00:33:25;35.14;31.66;40.89;;
71020;Laerm;58902;51.436;5.980;2023-04-24T00:33:35;36.19;34.38;41.66;;
71020;Laerm;58902;51.436;5.980;2023-04-24T00:33:46;36.28;34.89;37.92;;
71020;Laerm;58902;51.436;5.980;2023-04-24T00:33:57;35.95;33.56;39.61;;
71020;Laerm;58902;51.436;5.980;2023-04-24T00:34:07;35.13;32.16;37.70;;
71020;Laerm;58902;51.436;5.980;2023-04-24T00:34:18;35.99;33.81;37.71;;
71020;Laerm;58902;51.436;5.980;2023-04-24T00:34:28;35.91;33.84;37.48;;
71020;Laerm;58902;51.436;5.980;2023-04-24T00:34:39;35.79;34.16;37.21;;
71020;Laerm;58902;51.436;5.980;2023-04-24T00:34:52;36.12;34.52;37.83;;
71020;Laerm;58902;51.436;5.980;2023-04-24T00:35:02;37.22;34.62;39.53;;
71020;Laerm;58902;51.436;5.980;2023-04-24T00:35:13;37.07;35.12;38.97;;
71020;Laerm;58902;51.436;5.980;2023-04-24T00:35:24;36.87;35.01;38.48;;
71020;Laerm;58902;51.436;5.980;2023-04-24T00:35:34;36.67;34.48;37.99;;
71020;Laerm;58902;51.436;5.980;2023-04-24T00:35:45;36.02;33.61;37.67;;
71020;Laerm;58902;51.436;5.980;2023-04-24T00:35:55;35.58;34.23;37.57;;
71020;Laerm;58902;51.436;5.980;2023-04-24T00:36:06;35.57;34.03;37.19;;
71020;Laerm;58902;51.436;5.980;2023-04-24T00:36:17;33.85;32.04;36.09;;
71020;Laerm;58902;51.436;5.980;2023-04-24T00:36:29;33.78;32.27;36.17;;
71020;Laerm;58902;51.436;5.980;2023-04-24T00:36:40;34.28;32.87;36.46;;
71020;Laerm;58902;51.436;5.980;2023-04-24T00:36:51;33.80;32.18;35.81;;
71020;Laerm;58902;51.436;5.980;2023-04-24T00:37:02;34.84;33.42;37.57;;
71020;Laerm;58902;51.436;5.980;2023-04-24T00:37:12;35.65;33.78;37.06;;
71020;Laerm;58902;51.436;5.980;2023-04-24T00:37:22;35.61;34.27;37.64;;
71020;Laerm;58902;51.436;5.980;2023-04-24T00:37:33;35.17;33.35;37.05;;
71020;Laerm;58902;51.436;5.980;2023-04-24T00:37:43;34.87;33.24;37.40;;
71020;Laerm;58902;51.436;5.980;2023-04-24T00:37:53;34.90;33.49;37.64;;
71020;Laerm;58902;51.436;5.980;2023-04-24T00:38:04;34.24;32.81;36.15;;
71020;Laerm;58902;51.436;5.980;2023-04-24T00:38:15;35.42;33.05;38.87;;
71020;Laerm;58902;51.436;5.980;2023-04-24T00:38:26;35.93;33.92;39.00;;
71020;Laerm;58902;51.436;5.980;2023-04-24T00:38:36;34.74;32.81;37.59;;
71020;Laerm;58902;51.436;5.980;2023-04-24T00:38:46;36.37;33.16;41.55;;
71020;Laerm;58902;51.436;5.980;2023-04-24T00:38:57;34.37;32.86;37.39;;
71020;Laerm;58902;51.436;5.980;2023-04-24T00:39:07;33.91;32.23;36.88;;
71020;Laerm;58902;51.436;5.980;2023-04-24T00:39:21;33.73;32.33;36.81;;
71020;Laerm;58902;51.436;5.980;2023-04-24T00:39:31;34.05;32.36;35.54;;
71020;Laerm;58902;51.436;5.980;2023-04-24T00:39:42;34.54;33.17;37.08;;
71020;Laerm;58902;51.436;5.980;2023-04-24T00:39:52;34.92;33.07;36.77;;
71020;Laerm;58902;51.436;5.980;2023-04-24T00:40:03;36.19;34.49;37.51;;
71020;Laerm;58902;51.436;5.980;2023-04-24T00:40:13;36.52;35.03;37.91;;
71020;Laerm;58902;51.436;5.980;2023-04-24T00:40:23;36.24;34.50;38.80;;
71020;Laerm;58902;51.436;5.980;2023-04-24T00:40:37;36.60;34.87;38.31;;
71020;Laerm;58902;51.436;5.980;2023-04-24T00:40:47;35.80;33.84;37.65;;
71020;Laerm;58902;51.436;5.980;2023-04-24T00:41:02;34.66;32.56;36.26;;
71020;Laerm;58902;51.436;5.980;2023-04-24T00:41:13;33.95;32.21;36.43;;
71020;Laerm;58902;51.436;5.980;2023-04-24T00:41:24;34.01;32.46;36.61;;
71020;Laerm;58902;51.436;5.980;2023-04-24T00:41:34;34.16;32.81;36.15;;
71020;Laerm;58902;51.436;5.980;2023-04-24T00:41:45;34.98;33.15;36.78;;
71020;Laerm;58902;51.436;5.980;2023-04-24T00:41:56;36.06;33.70;45.23;;
71020;Laerm;58902;51.436;5.980;2023-04-24T00:42:06;37.43;34.16;53.08;;
71020;Laerm;58902;51.436;5.980;2023-04-24T00:42:17;35.85;34.02;41.09;;
71020;Laerm;58902;51.436;5.980;2023-04-24T00:42:27;41.20;32.66;55.42;;
71020;Laerm;58902;51.436;5.980;2023-04-24T00:42:38;34.23;32.26;46.67;;
71020;Laerm;58902;51.436;5.980;2023-04-24T00:42:50;33.33;31.50;35.67;;
71020;Laerm;58902;51.436;5.980;2023-04-24T00:43:00;33.16;31.36;35.54;;
71020;Laerm;58902;51.436;5.980;2023-04-24T00:43:10;33.67;31.54;35.94;;
71020;Laerm;58902;51.436;5.980;2023-04-24T00:43:22;33.53;31.72;36.41;;
71020;Laerm;58902;51.436;5.980;2023-04-24T00:43:32;34.02;32.51;35.91;;
71020;Laerm;58902;51.436;5.980;2023-04-24T00:43:43;34.32;32.81;36.19;;
71020;Laerm;58902;51.436;5.980;2023-04-24T00:43:53;33.84;31.86;43.33;;
71020;Laerm;58902;51.436;5.980;2023-04-24T00:44:03;34.18;32.06;36.24;;
71020;Laerm;58902;51.436;5.980;2023-04-24T00:44:14;33.90;31.87;36.48;;
71020;Laerm;58902;51.436;5.980;2023-04-24T00:44:25;34.66;33.12;36.68;;
71020;Laerm;58902;51.436;5.980;2023-04-24T00:44:35;34.06;32.59;35.79;;
71020;Laerm;58902;51.436;5.980;2023-04-24T00:44:45;33.42;31.71;35.79;;
71020;Laerm;58902;51.436;5.980;2023-04-24T00:44:56;33.28;32.01;35.30;;
71020;Laerm;58902;51.436;5.980;2023-04-24T00:45:06;33.15;31.83;35.72;;
71020;Laerm;58902;51.436;5.980;2023-04-24T00:45:17;34.09;31.33;38.23;;
71020;Laerm;58902;51.436;5.980;2023-04-24T00:45:28;33.66;32.17;37.91;;
71020;Laerm;58902;51.436;5.980;2023-04-24T00:45:38;32.91;31.27;35.23;;
71020;Laerm;58902;51.436;5.980;2023-04-24T00:45:48;34.00;31.82;35.88;;
71020;Laerm;58902;51.436;5.980;2023-04-24T00:45:59;34.94;32.80;37.02;;
71020;Laerm;58902;51.436;5.980;2023-04-24T00:46:12;33.81;32.24;35.81;;
71020;Laerm;58902;51.436;5.980;2023-04-24T00:46:22;33.63;32.09;35.58;;
71020;Laerm;58902;51.436;5.980;2023-04-24T00:46:33;33.38;31.64;35.15;;
71020;Laerm;58902;51.436;5.980;2023-04-24T00:46:43;33.54;31.91;35.27;;
71020;Laerm;58902;51.436;5.980;2023-04-24T00:46:53;33.46;32.12;36.06;;
71020;Laerm;58902;51.436;5.980;2023-04-24T00:47:04;34.34;32.54;36.50;;
71020;Laerm;58902;51.436;5.980;2023-04-24T00:47:15;36.97;33.08;53.33;;
71020;Laerm;58902;51.436;5.980;2023-04-24T00:47:25;34.33;32.63;36.74;;
71020;Laerm;58902;51.436;5.980;2023-04-24T00:47:36;40.74;34.03;55.39;;
71020;Laerm;58902;51.436;5.980;2023-04-24T00:47:47;41.71;35.57;54.82;;
71020;Laerm;58902;51.436;5.980;2023-04-24T00:47:58;46.57;35.92;59.86;;
71020;Laerm;58902;51.436;5.980;2023-04-24T00:48:10;36.28;34.61;38.10;;
71020;Laerm;58902;51.436;5.980;2023-04-24T00:48:22;36.64;34.89;38.28;;
71020;Laerm;58902;51.436;5.980;2023-04-24T00:48:33;35.98;34.13;38.42;;
71020;Laerm;58902;51.436;5.980;2023-04-24T00:48:44;38.88;35.53;46.23;;
71020;Laerm;58902;51.436;5.980;2023-04-24T00:48:55;39.59;36.77;42.71;;
71020;Laerm;58902;51.436;5.980;2023-04-24T00:49:06;37.78;35.12;39.91;;
71020;Laerm;58902;51.436;5.980;2023-04-24T00:49:16;37.15;35.23;40.34;;
71020;Laerm;58902;51.436;5.980;2023-04-24T00:49:27;36.15;34.84;37.41;;
71020;Laerm;58902;51.436;5.980;2023-04-24T00:49:38;36.34;34.43;38.84;;
71020;Laerm;58902;51.436;5.980;2023-04-24T00:49:48;36.60;34.53;40.36;;
71020;Laerm;58902;51.436;5.980;2023-04-24T00:50:00;35.73;33.69;38.88;;
71020;Laerm;58902;51.436;5.980;2023-04-24T00:50:11;37.30;34.22;45.54;;
71020;Laerm;58902;51.436;5.980;2023-04-24T00:50:23;35.50;33.79;40.79;;
71020;Laerm;58902;51.436;5.980;2023-04-24T00:50:35;34.84;33.41;36.04;;
71020;Laerm;58902;51.436;5.980;2023-04-24T00:50:45;34.49;32.95;36.42;;
71020;Laerm;58902;51.436;5.980;2023-04-24T00:50:56;34.35;33.08;35.92;;
71020;Laerm;58902;51.436;5.980;2023-04-24T00:51:08;34.32;32.72;36.11;;
71020;Laerm;58902;51.436;5.980;2023-04-24T00:51:19;33.95;32.47;35.92;;
71020;Laerm;58902;51.436;5.980;2023-04-24T00:51:30;35.11;32.68;38.64;;
71020;Laerm;58902;51.436;5.980;2023-04-24T00:51:41;34.55;32.98;38.85;;
71020;Laerm;58902;51.436;5.980;2023-04-24T00:51:55;33.89;31.96;35.20;;
71020;Laerm;58902;51.436;5.980;2023-04-24T00:52:07;35.25;32.63;45.94;;
71020;Laerm;58902;51.436;5.980;2023-04-24T00:52:18;33.96;32.48;35.89;;
71020;Laerm;58902;51.436;5.980;2023-04-24T00:52:30;33.87;32.35;35.43;;
71020;Laerm;58902;51.436;5.980;2023-04-24T00:52:42;33.18;31.43;34.86;;
71020;Laerm;58902;51.436;5.980;2023-04-24T00:52:52;33.47;31.75;36.69;;
71020;Laerm;58902;51.436;5.980;2023-04-24T00:53:02;34.83;32.46;43.94;;
71020;Laerm;58902;51.436;5.980;2023-04-24T00:53:13;34.26;32.33;46.90;;
71020;Laerm;58902;51.436;5.980;2023-04-24T00:53:23;33.78;32.13;35.80;;
71020;Laerm;58902;51.436;5.980;2023-04-24T00:53:33;34.19;32.51;38.78;;
71020;Laerm;58902;51.436;5.980;2023-04-24T00:53:44;33.97;31.98;36.58;;
71020;Laerm;58902;51.436;5.980;2023-04-24T00:53:54;34.04;32.48;35.98;;
71020;Laerm;58902;51.436;5.980;2023-04-24T00:54:05;34.53;32.65;36.07;;
71020;Laerm;58902;51.436;5.980;2023-04-24T00:54:16;35.55;33.79;36.99;;
71020;Laerm;58902;51.436;5.980;2023-04-24T00:54:26;36.08;33.99;37.94;;
71020;Laerm;58902;51.436;5.980;2023-04-24T00:54:36;36.13;34.09;38.45;;
71020;Laerm;58902;51.436;5.980;2023-04-24T00:54:46;36.85;35.19;41.09;;
71020;Laerm;58902;51.436;5.980;2023-04-24T00:55:00;36.21;33.74;38.26;;
71020;Laerm;58902;51.436;5.980;2023-04-24T00:55:10;35.66;33.62;38.21;;
71020;Laerm;58902;51.436;5.980;2023-04-24T00:55:21;35.34;33.36;36.97;;
71020;Laerm;58902;51.436;5.980;2023-04-24T00:55:31;35.04;33.63;37.13;;
71020;Laerm;58902;51.436;5.980;2023-04-24T00:55:42;35.53;33.59;36.99;;
71020;Laerm;58902;51.436;5.980;2023-04-24T00:55:52;35.30;33.72;37.02;;
71020;Laerm;58902;51.436;5.980;2023-04-24T00:56:03;34.68;32.92;36.51;;
71020;Laerm;58902;51.436;5.980;2023-04-24T00:56:14;34.62;32.79;36.39;;
71020;Laerm;58902;51.436;5.980;2023-04-24T00:56:25;34.73;33.36;36.45;;
71020;Laerm;58902;51.436;5.980;2023-04-24T00:56:36;35.01;33.46;36.84;;
71020;Laerm;58902;51.436;5.980;2023-04-24T00:56:46;35.59;33.68;38.60;;
71020;Laerm;58902;51.436;5.980;2023-04-24T00:56:57;36.66;34.56;43.61;;
71020;Laerm;58902;51.436;5.980;2023-04-24T00:57:07;50.94;35.27;67.14;;
71020;Laerm;58902;51.436;5.980;2023-04-24T00:57:18;36.88;33.95;52.80;;
71020;Laerm;58902;51.436;5.980;2023-04-24T00:57:28;35.16;33.72;36.90;;
71020;Laerm;58902;51.436;5.980;2023-04-24T00:57:38;35.27;33.58;38.65;;
71020;Laerm;58902;51.436;5.980;2023-04-24T00:57:49;35.64;32.53;41.40;;
71020;Laerm;58902;51.436;5.980;2023-04-24T00:58:00;36.58;35.21;38.48;;
71020;Laerm;58902;51.436;5.980;2023-04-24T00:58:11;37.12;35.63;38.52;;
71020;Laerm;58902;51.436;5.980;2023-04-24T00:58:22;36.89;34.64;39.68;;
71020;Laerm;58902;51.436;5.980;2023-04-24T00:58:32;37.93;35.96;39.69;;
71020;Laerm;58902;51.436;5.980;2023-04-24T00:58:42;38.44;35.72;45.12;;
71020;Laerm;58902;51.436;5.980;2023-04-24T00:58:53;38.41;36.29;42.74;;
71020;Laerm;58902;51.436;5.980;2023-04-24T00:59:04;38.66;36.31;44.47;;
71020;Laerm;58902;51.436;5.980;2023-04-24T00:59:16;40.05;36.49;48.75;;
71020;Laerm;58902;51.436;5.980;2023-04-24T00:59:26;39.91;37.12;45.23;;
71020;Laerm;58902;51.436;5.980;2023-04-24T00:59:36;39.25;37.03;41.54;;
71020;Laerm;58902;51.436;5.980;2023-04-24T00:59:47;38.48;35.91;40.67;;
71020;Laerm;58902;51.436;5.980;2023-04-24T00:59:57;38.01;36.28;41.98;;
71020;Laerm;58902;51.436;5.980;2023-04-24T01:00:08;42.43;36.09;52.44;;
71020;Laerm;58902;51.436;5.980;2023-04-24T01:00:21;39.49;34.46;51.10;;
71020;Laerm;58902;51.436;5.980;2023-04-24T01:00:32;36.08;34.58;37.67;;
71020;Laerm;58902;51.436;5.980;2023-04-24T01:00:43;35.97;34.45;38.30;;
71020;Laerm;58902;51.436;5.980;2023-04-24T01:00:54;37.90;35.19;50.38;;